Time;durP1;ratioP1;P1;durP2;ratioP2;P2;SDS_P1;SDS_P2;PMS_P1;PMS_P2;Temp;Humidity;BMP_temperature;BMP_pressure;BME280_temperature;BME280_humidity;BME280_pressure;Samples;Min_cycle;Max_cycle;Signal;HPM_P1;HPM_P2
2021/06/26 00:00:17;;;;;;;53.57;47.67;;;;;;;;;;2039872;29;20542;-74
2021/06/26 00:01:17;;;;;;;52.07;46.63;;;;;;;;;;2032142;29;20232;-75
2021/06/26 00:02:19;;;;;;;52.87;47.30;;;;;;;;;;2032094;29;20507;-75
2021/06/26 00:03:20;;;;;;;51.53;45.93;;;;;;;;;;2040050;29;20273;-75
2021/06/26 00:04:21;;;;;;;55.37;47.87;;;;;;;;;;2039838;29;20498;-75
2021/06/26 00:05:22;;;;;;;52.53;46.90;;;;;;;;;;2039465;29;20297;-76
2021/06/26 00:06:24;;;;;;;54.23;45.87;;;;;;;;;;2040481;28;20542;-76
2021/06/26 00:07:25;;;;;;;49.63;44.37;;;;;;;22.40;100.00;57713.63;2040637;28;20575;-74
2021/06/26 00:08:26;;;;;;;50.07;44.93;;;;;;;;;;2040587;28;20474;-75
2021/06/26 00:09:27;;;;;;;51.07;45.27;;;;;;;;;;2040709;28;20579;-75
2021/06/26 00:10:28;;;;;;;51.20;45.17;;;;;;;;;;2040480;28;20482;-75
2021/06/26 00:11:29;;;;;;;52.50;46.80;;;;;;;;;;2040435;28;20233;-75
2021/06/26 00:12:30;;;;;;;59.23;46.63;;;;;;;;;;2041032;28;20473;-74
2021/06/26 00:13:32;;;;;;;51.23;45.83;;;;;;;;;;2039811;29;20764;-75
2021/06/26 00:14:34;;;;;;;53.93;47.13;;;;;;;;;;2039968;29;20792;-75
2021/06/26 00:15:35;;;;;;;53.73;47.73;;;;;;;;;;2048254;28;20524;-74
2021/06/26 00:16:36;;;;;;;53.27;46.13;;;;;;;;;;2039813;29;20458;-75
2021/06/26 00:17:37;;;;;;;51.67;45.80;;;;;;;;;;2039533;29;20241;-76
2021/06/26 00:18:39;;;;;;;50.93;45.57;;;;;;;;;;2039720;29;20455;-74
2021/06/26 00:19:39;;;;;;;51.23;44.87;;;;;;;;;;2039681;29;20238;-75
2021/06/26 00:20:41;;;;;;;50.17;44.73;;;;;;;;;;2048216;28;20478;-74
2021/06/26 00:21:41;;;;;;;50.67;45.43;;;;;;;;;;2039652;29;20336;-75
2021/06/26 00:22:43;;;;;;;50.77;45.30;;;;;;;;;;2039622;29;20505;-75
2021/06/26 00:23:43;;;;;;;52.27;46.60;;;;;;;;;;2047890;28;20708;-75
2021/06/26 00:24:45;;;;;;;51.37;45.73;;;;;;;;;;2039269;29;20818;-75
2021/06/26 00:25:45;;;;;;;50.40;45.10;;;;;;;;;;2031752;29;20289;-75
2021/06/26 00:26:49;;;;;;;51.10;45.40;;;;;;;;;;2047692;28;20513;-75
2021/06/26 00:27:49;;;;;;;49.97;44.57;;;;;;;;;;2047633;28;20269;-74
2021/06/26 00:28:52;;;;;;;52.40;46.80;;;;;;;;;;2048361;28;20446;-75
2021/06/26 00:29:53;;;;;;;51.13;45.73;;;;;;;;;;2039209;28;20717;-75
2021/06/26 00:30:54;;;;;;;52.43;45.70;;;;;;;;;;2031764;29;20836;-75
2021/06/26 00:31:55;;;;;;;50.63;45.23;;;;;;;;;;2031841;29;20227;-75
2021/06/26 00:32:56;;;;;;;50.67;45.30;;;;;;;;;;2039607;29;20603;-75
2021/06/26 00:33:57;;;;;;;50.67;45.37;;;;;;;;;;2039692;29;20233;-75
2021/06/26 00:34:58;;;;;;;50.47;45.07;;;;;;;;;;2039686;29;20458;-75
2021/06/26 00:35:59;;;;;;;50.63;45.20;;;;;;;;;;2048075;28;20230;-75
2021/06/26 00:37:00;;;;;;;53.13;44.70;;;;;;;;;;2048166;28;20465;-74
2021/06/26 00:38:01;;;;;;;48.10;43.20;;;;;;;;;;2048118;28;20241;-75
2021/06/26 00:39:02;;;;;;;47.83;42.97;;;;;;;;;;2048223;28;20454;-74
2021/06/26 00:40:03;;;;;;;48.67;43.43;;;;;;;;;;2048045;28;20234;-75
2021/06/26 00:41:05;;;;;;;45.97;41.27;;;;;;;;;;2048213;28;20458;-75
2021/06/26 00:42:06;;;;;;;46.00;41.47;;;;;;;;;;2048287;28;20226;-74
2021/06/26 00:43:07;;;;;;;43.70;39.43;;;;;;;;;;2039006;28;20447;-76
2021/06/26 00:44:10;;;;;;;43.80;39.53;;;;;;;;;;2031677;29;20271;-75
2021/06/26 00:45:13;;;;;;;44.17;39.87;;;;;;;22.40;100.00;57713.63;2039802;28;20510;-74
2021/06/26 00:46:14;;;;;;;44.33;39.90;;;;;;;;;;2039462;29;20462;-75
2021/06/26 00:47:16;;;;;;;44.43;39.63;;;;;;;;;;2039662;29;20510;-74
2021/06/26 00:48:16;;;;;;;42.37;37.80;;;;;;;;;;2048005;28;20987;-75
2021/06/26 00:49:18;;;;;;;43.13;38.90;;;;;;;;;;2048084;28;20800;-75
2021/06/26 00:50:20;;;;;;;44.10;39.70;;;;;;;;;;2048118;28;20230;-74
2021/06/26 00:51:21;;;;;;;43.20;39.00;;;;;;;;;;2047942;28;20465;-74
2021/06/26 00:52:22;;;;;;;42.10;38.10;;;;;;;;;;2047710;28;20805;-75
2021/06/26 00:53:23;;;;;;;41.57;37.77;;;;;;;;;;2039507;29;20550;-76
2021/06/26 00:54:24;;;;;;;38.80;35.17;;;;;;;;;;2031529;29;20227;-74
2021/06/26 00:55:25;;;;;;;40.23;36.63;;;;;;;;;;2031668;29;20550;-74
2021/06/26 00:56:26;;;;;;;38.87;35.40;;;;;;;;;;2039619;29;20265;-74
2021/06/26 00:57:29;;;;;;;40.03;36.43;;;;;;;;;;2047967;28;20454;-74
2021/06/26 00:58:29;;;;;;;40.80;37.07;;;;;;;;;;2048061;28;20454;-75
2021/06/26 00:59:33;;;;;;;41.50;37.23;;;;;;;;;;2047929;28;20505;-74
2021/06/26 01:00:33;;;;;;;40.27;36.47;;;;;;;;;;2048026;28;20681;-75
2021/06/26 01:01:35;;;;;;;40.80;37.13;;;;;;;;;;2039051;28;20802;-74
2021/06/26 01:02:35;;;;;;;39.73;35.83;;;;;;;;;;2039634;29;20245;-75
2021/06/26 01:03:37;;;;;;;38.43;35.03;;;;;;;;;;2039089;29;20522;-75
2021/06/26 01:04:37;;;;;;;40.50;36.60;;;;;;;;;;2039078;29;20247;-75
2021/06/26 01:05:39;;;;;;;39.03;35.20;;;;;;;;;;2047410;28;20468;-75
2021/06/26 01:06:39;;;;;;;40.30;36.40;;;;;;;;;;2048186;28;20233;-74
2021/06/26 01:07:41;;;;;;;38.93;35.40;;;;;;;;;;2038958;29;20509;-75
2021/06/26 01:08:42;;;;;;;39.27;35.47;;;;;;;;;;2031455;29;20301;-74
2021/06/26 01:09:43;;;;;;;36.67;33.47;;;;;;;;;;2031532;29;20455;-75
2021/06/26 01:10:44;;;;;;;38.00;34.13;;;;;;;;;;2031603;29;20698;-74
2021/06/26 01:11:45;;;;;;;36.10;33.03;;;;;;;;;;2039537;29;20853;-75
2021/06/26 01:12:46;;;;;;;36.03;32.83;;;;;;;;;;2039181;29;20242;-74
2021/06/26 01:13:47;;;;;;;35.27;32.20;;;;;;;;;;2039545;29;20494;-74
2021/06/26 01:14:49;;;;;;;35.63;32.57;;;;;;;;;;2047840;28;20237;-74
2021/06/26 01:15:51;;;;;;;35.83;32.73;;;;;;;;;;2039447;28;20856;-74
2021/06/26 01:16:51;;;;;;;36.77;33.67;;;;;;;;;;2031431;29;20467;-76
2021/06/26 01:17:54;;;;;;;35.60;32.17;;;;;;;;;;2039494;29;20522;-75
2021/06/26 01:18:54;;;;;;;35.57;32.67;;;;;;;;;;2047933;28;20229;-75
2021/06/26 01:19:55;;;;;;;35.80;32.40;;;;;;;;;;2039419;29;20459;-75
2021/06/26 01:20:56;;;;;;;36.07;32.97;;;;;;;;;;2039390;29;20706;-74
2021/06/26 01:21:59;;;;;;;36.27;32.80;;;;;;;22.40;100.00;57768.34;2039599;29;20906;-75
2021/06/26 01:23:02;;;;;;;36.00;32.90;;;;;;;;;;2047970;28;20245;-74
2021/06/26 01:24:02;;;;;;;36.10;33.00;;;;;;;;;;2039382;29;20522;-74
2021/06/26 01:25:04;;;;;;;35.90;32.80;;;;;;;;;;2039341;29;20506;-74
2021/06/26 01:26:05;;;;;;;36.00;33.00;;;;;;;;;;2047933;28;20752;-75
2021/06/26 01:27:06;;;;;;;35.23;32.30;;;;;;;;;;2039308;29;20873;-75
2021/06/26 01:28:08;;;;;;;35.53;32.43;;;;;;;;;;2031202;29;20236;-75
2021/06/26 01:29:09;;;;;;;36.83;33.63;;;;;;;;;;2031395;29;20488;-74
2021/06/26 01:30:11;;;;;;;35.00;32.03;;;;;;;;;;2039316;29;20466;-76
2021/06/26 01:31:11;;;;;;;35.87;32.83;;;;;;;;;;2047943;28;20234;-75
2021/06/26 01:32:13;;;;;;;36.27;32.97;;;;;;;;;;2039264;29;20494;-75
2021/06/26 01:33:14;;;;;;;36.07;33.13;;;;;;;;;;2039359;29;20234;-74
2021/06/26 01:34:15;;;;;;;36.47;33.37;;;;;;;22.40;100.00;57713.63;2047930;28;20454;-75
2021/06/26 01:35:16;;;;;;;36.80;33.20;;;;;;;;;;2047881;28;20312;-75
2021/06/26 01:36:18;;;;;;;36.27;33.17;;;;;;;;;;2039312;29;20498;-74
2021/06/26 01:37:18;;;;;;;34.43;31.53;;;;;;;;;;2031491;29;20227;-75
2021/06/26 01:38:21;;;;;;;35.97;32.80;;;;;;;;;;2031471;29;20982;-74
2021/06/26 01:39:21;;;;;;;36.10;32.97;;;;;;;;;;2031149;29;20690;-76
2021/06/26 01:40:24;;;;;;;35.33;32.33;;;;;;;;;;2031673;29;20783;-76
2021/06/26 01:41:25;;;;;;;36.03;32.73;;;;;;;;;;2031581;29;20231;-75
2021/06/26 01:42:26;;;;;;;35.60;32.60;;;;;;;;;;2031560;29;20455;-75
2021/06/26 01:43:27;;;;;;;36.43;33.43;;;;;;;;;;2031412;29;21001;-75
2021/06/26 01:44:28;;;;;;;36.07;33.13;;;;;;;;;;2039328;29;20806;-75
2021/06/26 01:45:29;;;;;;;35.43;32.33;;;;;;;;;;2039279;29;20226;-75
2021/06/26 01:46:30;;;;;;;35.17;32.20;;;;;;;;;;2031441;29;20542;-74
2021/06/26 01:47:31;;;;;;;35.53;32.43;;;;;;;;;;2039368;29;20295;-75
2021/06/26 01:48:32;;;;;;;35.10;32.10;;;;;;;;;;2047785;28;20446;-75
2021/06/26 01:49:33;;;;;;;36.00;32.80;;;;;;;;;;2047907;28;20284;-74
2021/06/26 01:50:34;;;;;;;35.77;32.57;;;;;;;;;;2047938;28;20453;-75
2021/06/26 01:51:35;;;;;;;35.23;31.87;;;;;;;;;;2039155;29;20279;-75
2021/06/26 01:52:37;;;;;;;34.07;31.37;;;;;;;;;;2039296;29;20455;-75
2021/06/26 01:53:39;;;;;;;34.37;31.40;;;;;;;;;;2047546;28;20234;-76
2021/06/26 01:54:41;;;;;;;35.03;32.17;;;;;;;;;;2047888;28;20500;-75
2021/06/26 01:55:41;;;;;;;35.67;32.77;;;;;;;;;;2049459;28;20461;-75
2021/06/26 01:56:43;;;;;;;34.87;31.73;;;;;;;;;;2049432;28;20921;-74
2021/06/26 01:57:44;;;;;;;33.80;30.87;;;;;;;;;;2040793;29;20223;-75
2021/06/26 01:58:45;;;;;;;36.33;33.33;;;;;;;;;;2040734;29;20483;-75
2021/06/26 01:59:46;;;;;;;35.20;32.27;;;;;;;;;;2040886;29;20450;-74
2021/06/26 02:00:47;;;;;;;35.23;32.03;;;;;;;;;;2049450;28;20486;-75
2021/06/26 02:01:48;;;;;;;34.90;32.00;;;;;;;;;;2049385;28;20229;-75
2021/06/26 02:02:49;;;;;;;34.23;31.47;;;;;;;;;;2049343;28;21003;-75
2021/06/26 02:03:50;;;;;;;34.63;31.63;;;;;;;;;;2040846;29;20234;-75
2021/06/26 02:04:52;;;;;;;34.53;31.73;;;;;;;;;;2040792;29;20479;-75
2021/06/26 02:05:52;;;;;;;35.37;32.27;;;;;;;;;;2048924;28;20230;-76
2021/06/26 02:06:54;;;;;;;34.63;31.80;;;;;;;;;;2049206;28;20481;-75
2021/06/26 02:07:57;;;;;;;35.10;32.23;;;;;;;;;;2040248;29;20234;-75
2021/06/26 02:08:59;;;;;;;34.70;31.80;;;;;;;;;;2040974;29;21067;-75
2021/06/26 02:10:01;;;;;;;34.10;31.00;;;;;;;;;;2049143;28;20453;-74
2021/06/26 02:11:01;;;;;;;34.10;31.30;;;;;;;;;;2049199;28;20807;-75
2021/06/26 02:12:03;;;;;;;33.97;30.90;;;;;;;;;;2049273;28;20461;-75
2021/06/26 02:13:03;;;;;;;33.90;31.20;;;;;;;;;;2040494;29;20366;-74
2021/06/26 02:14:05;;;;;;;33.93;31.03;;;;;;;;;;2040630;29;20960;-75
2021/06/26 02:15:06;;;;;;;33.73;30.93;;;;;;;;;;2040660;29;20270;-75
2021/06/26 02:16:08;;;;;;;34.83;31.83;;;;;;;;;;2040411;29;20526;-76
2021/06/26 02:17:08;;;;;;;33.13;30.53;;;;;;;;;;2049164;28;20469;-75
2021/06/26 02:18:10;;;;;;;34.20;31.00;;;;;;;;;;2049182;28;20485;-74
2021/06/26 02:19:10;;;;;;;35.13;32.00;;;;;;;;;;2049263;28;20613;-75
2021/06/26 02:20:12;;;;;;;40.47;31.17;;;;;;;;;;2040399;29;26424;-74
2021/06/26 02:21:13;;;;;;;33.83;31.10;;;;;;;;;;2040901;29;20302;-75
2021/06/26 02:22:14;;;;;;;34.57;31.63;;;;;;;;;;2049194;28;20445;-74
2021/06/26 02:23:15;;;;;;;34.17;31.37;;;;;;;;;;2049290;28;20229;-73
2021/06/26 02:24:18;;;;;;;34.37;31.37;;;;;;;;;;2049207;28;20470;-74
2021/06/26 02:25:19;;;;;;;35.00;31.80;;;;;;;;;;2040550;29;20218;-74
2021/06/26 02:26:20;;;;;;;34.97;31.77;;;;;;;;;;2040714;29;20466;-73
2021/06/26 02:27:21;;;;;;;34.77;31.57;;;;;;;;;;2049175;28;20229;-73
2021/06/26 02:28:22;;;;;;;35.27;32.07;;;;;;;;;;2040185;29;20549;-76
2021/06/26 02:29:23;;;;;;;34.60;31.60;;;;;;;;;;2032743;29;20223;-74
2021/06/26 02:30:24;;;;;;;34.50;31.10;;;;;;;;;;2040678;29;20968;-74
2021/06/26 02:31:25;;;;;;;35.23;32.13;;;;;;;;;;2049125;28;20631;-74
2021/06/26 02:32:26;;;;;;;34.60;31.70;;;;;;;;;;2040529;28;20463;-74
2021/06/26 02:33:27;;;;;;;36.90;33.70;;;;;;;;;;2040590;29;20318;-74
2021/06/26 02:34:28;;;;;;;34.77;32.03;;;;;;;;;;2049051;28;20442;-74
2021/06/26 02:35:29;;;;;;;35.43;32.53;;;;;;;;;;2049154;28;20222;-74
2021/06/26 02:36:30;;;;;;;35.17;32.27;;;;;;;;;;2040613;29;20446;-74
2021/06/26 02:37:31;;;;;;;35.90;32.50;;;;;;;;;;2040606;29;20227;-74
2021/06/26 02:38:32;;;;;;;34.83;31.93;;;;;;;22.40;100.00;57713.63;2040573;29;21060;-73
2021/06/26 02:39:34;;;;;;;34.50;31.50;;;;;;;;;;2040744;29;20227;-74
2021/06/26 02:40:36;;;;;;;34.27;31.47;;;;;;;;;;2049008;28;20983;-73
2021/06/26 02:41:36;;;;;;;34.03;31.30;;;;;;;;;;2048563;28;20864;-75
2021/06/26 02:42:38;;;;;;;34.83;31.93;;;;;;;;;;2040481;29;20537;-74
2021/06/26 02:43:38;;;;;;;36.60;33.23;;;;;;;;;;2040555;29;20574;-74
2021/06/26 02:44:40;;;;;;;36.00;33.07;;;;;;;;;;2048942;28;20546;-75
2021/06/26 02:45:40;;;;;;;37.27;34.23;;;;;;;;;;2048977;28;20284;-73
2021/06/26 02:46:42;;;;;;;38.43;35.27;;;;;;;;;;2040256;28;20517;-74
2021/06/26 02:47:42;;;;;;;36.30;33.03;;;;;;;;;;2032566;29;20231;-74
2021/06/26 02:48:44;;;;;;;35.23;32.23;;;;;;;;;;2040509;28;20450;-74
2021/06/26 02:49:44;;;;;;;37.73;34.43;;;;;;;;;;2048974;28;20218;-74
2021/06/26 02:50:46;;;;;;;36.20;33.27;;;;;;;;;;2049018;28;20473;-74
2021/06/26 02:51:47;;;;;;;36.40;33.33;;;;;;;;;;2048933;28;20289;-74
2021/06/26 02:52:49;;;;;;;34.77;31.97;;;;;;;;;;2040354;29;20938;-74
2021/06/26 02:53:49;;;;;;;35.33;32.33;;;;;;;;;;2032595;29;20456;-74
2021/06/26 02:54:52;;;;;;;35.83;32.83;;;;;;;;;;2032525;29;20495;-74
2021/06/26 02:55:55;;;;;;;36.20;33.20;;;;;;;;;;2039939;29;20689;-74
2021/06/26 02:56:57;;;;;;;36.87;33.40;;;;;;;;;;2040732;29;20455;-74
2021/06/26 02:57:57;;;;;;;35.73;32.43;;;;;;;;;;2048401;28;20461;-74
2021/06/26 02:58:59;;;;;;;35.97;33.00;;;;;;;;;;2048917;28;20482;-74
2021/06/26 02:59:59;;;;;;;35.03;32.13;;;;;;;;;;2048918;28;20242;-74
2021/06/26 03:01:01;;;;;;;35.60;32.37;;;;;;;;;;2040339;29;20555;-74
2021/06/26 03:02:01;;;;;;;35.73;32.70;;;;;;;;;;2040285;28;20306;-74
2021/06/26 03:03:03;;;;;;;34.63;31.73;;;;;;;;;;2048322;28;20949;-74
2021/06/26 03:04:04;;;;;;;34.23;31.33;;;;;;;;;;2048834;28;20229;-74
2021/06/26 03:05:06;;;;;;;34.93;32.00;;;;;;;;;;2048907;28;21071;-74
2021/06/26 03:06:06;;;;;;;35.20;32.07;;;;;;;;;;2048514;28;20964;-74
2021/06/26 03:07:08;;;;;;;35.07;32.00;;;;;;;;;;2048450;28;20544;-74
2021/06/26 03:08:08;;;;;;;34.50;31.50;;;;;;;;;;2048745;28;20223;-74
2021/06/26 03:09:10;;;;;;;34.83;31.93;;;;;;;;;;2048825;28;20462;-74
2021/06/26 03:10:12;;;;;;;33.47;30.67;;;;;;;;;;2048642;28;20229;-74
2021/06/26 03:11:13;;;;;;;34.07;30.93;;;;;;;;;;2039830;29;20450;-74
2021/06/26 03:12:14;;;;;;;33.83;31.00;;;;;;;;;;2032422;29;20452;-74
2021/06/26 03:13:16;;;;;;;34.33;31.33;;;;;;;;;;2032209;29;20495;-74
2021/06/26 03:14:16;;;;;;;34.87;31.73;;;;;;;;;;2040398;29;20282;-74
2021/06/26 03:15:18;;;;;;;35.67;32.67;;;;;;;;;;2040270;29;20934;-74
2021/06/26 03:16:18;;;;;;;34.80;31.90;;;;;;;;;;2040192;29;20223;-74
2021/06/26 03:17:20;;;;;;;34.57;31.77;;;;;;;;;;2039915;29;20522;-74
2021/06/26 03:18:20;;;;;;;34.67;31.67;;;;;;;;;;2040458;29;20721;-74
2021/06/26 03:19:22;;;;;;;34.83;31.93;;;;;;;;;;2040265;29;20890;-74
2021/06/26 03:20:22;;;;;;;34.47;31.57;;;;;;;;;;2039806;29;20227;-74
2021/06/26 03:21:24;;;;;;;33.63;30.73;;;;;;;;;;2040188;29;20942;-74
2021/06/26 03:22:24;;;;;;;34.03;31.03;;;;;;;;;;2048638;28;20233;-74
2021/06/26 03:23:26;;;;;;;34.27;31.47;;;;;;;;;;2040048;29;20490;-74
2021/06/26 03:24:27;;;;;;;33.73;30.83;;;;;;;;;;2040339;29;20238;-74
2021/06/26 03:25:30;;;;;;;34.27;31.37;;;;;;;22.40;100.00;57713.63;2048667;28;20458;-74
2021/06/26 03:26:33;;;;;;;34.93;31.93;;;;;;;;;;2040076;29;20459;-74
2021/06/26 03:27:34;;;;;;;34.23;31.43;;;;;;;;;;2040480;29;20463;-74
2021/06/26 03:28:35;;;;;;;34.53;31.83;;;;;;;;;;2048709;28;20462;-74
2021/06/26 03:29:37;;;;;;;34.13;31.17;;;;;;;;;;2048703;28;20537;-74
2021/06/26 03:30:37;;;;;;;34.90;32.10;;;;;;;;;;2039586;29;20234;-74
2021/06/26 03:31:39;;;;;;;35.30;32.20;;;;;;;;;;2040244;29;20493;-74
2021/06/26 03:32:39;;;;;;;36.70;33.37;;;;;;;;;;2040032;29;20222;-74
2021/06/26 03:33:41;;;;;;;35.83;32.97;;;;;;;;;;2040110;29;20466;-74
2021/06/26 03:34:41;;;;;;;37.03;33.73;;;;;;;;;;2048683;28;20751;-75
2021/06/26 03:35:43;;;;;;;37.10;34.00;;;;;;;;;;2048622;28;20839;-74
2021/06/26 03:36:44;;;;;;;37.17;33.97;;;;;;;;;;2040012;29;20233;-73
2021/06/26 03:37:45;;;;;;;34.63;31.83;;;;;;;;;;2040106;29;20553;-74
2021/06/26 03:38:47;;;;;;;35.97;32.87;;;;;;;;;;2040080;29;20553;-74
2021/06/26 03:39:47;;;;;;;35.23;32.03;;;;;;;;;;2031924;29;20310;-74
2021/06/26 03:40:50;;;;;;;34.97;32.10;;;;;;;;;;2032241;28;20462;-74
2021/06/26 03:41:51;;;;;;;36.17;33.17;;;;;;;;;;2040264;29;20227;-74
2021/06/26 03:42:52;;;;;;;34.50;31.60;;;;;;;;;;2040034;29;20467;-74
2021/06/26 03:43:55;;;;;;;35.17;32.17;;;;;;;;;;2031823;29;20283;-74
2021/06/26 03:44:56;;;;;;;36.30;33.40;;;;;;;;;;2032306;29;20553;-74
2021/06/26 03:45:57;;;;;;;35.43;32.47;;;;;;;;;;2039956;29;20463;-74
2021/06/26 03:46:58;;;;;;;35.63;32.17;;;;;;;;;;2048424;28;20509;-74
2021/06/26 03:47:59;;;;;;;36.00;33.07;;;;;;;;;;2048629;28;20222;-74
2021/06/26 03:49:00;;;;;;;37.03;33.43;;;;;;;;;;2048631;28;20537;-74
2021/06/26 03:50:01;;;;;;;36.20;33.17;;;;;;;;;;2039879;29;20732;-73
2021/06/26 03:51:03;;;;;;;35.73;32.73;;;;;;;;;;2040104;29;20588;-74
2021/06/26 03:52:04;;;;;;;36.57;33.47;;;;;;;;;;2048458;28;20230;-74
2021/06/26 03:53:05;;;;;;;36.33;32.67;;;;;;;;;;2048489;28;20509;-74
2021/06/26 03:54:06;;;;;;;35.70;32.50;;;;;;;;;;2048451;28;20454;-74
2021/06/26 03:55:08;;;;;;;36.60;33.50;;;;;;;;;;2048137;28;20936;-74
2021/06/26 03:56:10;;;;;;;36.77;33.43;;;;;;;;;;2048404;28;20552;-74
2021/06/26 03:57:12;;;;;;;37.33;33.80;;;;;;;;;;2048429;28;20449;-74
2021/06/26 03:58:12;;;;;;;35.33;32.33;;;;;;;;;;2039848;29;20455;-73
2021/06/26 03:59:14;;;;;;;35.80;32.63;;;;;;;;;;2039711;29;20938;-74
2021/06/26 04:00:15;;;;;;;35.73;32.83;;;;;;;;;;2047909;28;20229;-74
2021/06/26 04:01:16;;;;;;;36.77;33.50;;;;;;;;;;2048457;28;20940;-74
2021/06/26 04:02:17;;;;;;;35.50;32.60;;;;;;;;;;2048460;28;21014;-73
2021/06/26 04:03:19;;;;;;;36.57;33.00;;;;;;;;;;2039876;28;20932;-74
2021/06/26 04:04:19;;;;;;;35.50;32.03;;;;;;;;;;2032120;29;20318;-73
2021/06/26 04:05:21;;;;;;;35.03;32.23;;;;;;;;;;2039475;29;20953;-74
2021/06/26 04:06:22;;;;;;;35.30;32.30;;;;;;;;;;2047458;28;20230;-74
2021/06/26 04:07:23;;;;;;;35.50;32.33;;;;;;;;;;2039708;29;20509;-74
2021/06/26 04:08:24;;;;;;;34.67;31.77;;;;;;;;;;2040038;29;20286;-74
2021/06/26 04:09:25;;;;;;;34.40;31.60;;;;;;;;;;2039773;29;20459;-74
2021/06/26 04:10:27;;;;;;;35.07;31.97;;;;;;;;;;2031937;29;20673;-74
2021/06/26 04:11:30;;;;;;;35.70;32.77;;;;;;;;;;2039793;29;20987;-74
2021/06/26 04:12:30;;;;;;;35.33;32.53;;;;;;;;;;2039583;29;20993;-74
2021/06/26 04:13:32;;;;;;;34.53;31.73;;;;;;;;;;2039714;29;21057;-73
2021/06/26 04:14:32;;;;;;;35.67;32.67;;;;;;;;;;2039904;29;20219;-74
2021/06/26 04:15:34;;;;;;;36.50;32.90;;;;;;;;;;2039658;29;20495;-73
2021/06/26 04:16:35;;;;;;;36.13;33.03;;;;;;;;;;2032054;29;20617;-74
2021/06/26 04:17:37;;;;;;;36.10;33.17;;;;;;;;;;2031255;29;20452;-74
2021/06/26 04:18:38;;;;;;;36.07;33.17;;;;;;;;;;2031574;29;20239;-74
2021/06/26 04:19:39;;;;;;;33.80;30.90;;;;;;;;;;2039923;29;20470;-74
2021/06/26 04:20:41;;;;;;;33.53;30.50;;;;;;;;;;2039768;29;20563;-74
2021/06/26 04:21:42;;;;;;;35.70;32.80;;;;;;;;;;2039706;29;20319;-74
2021/06/26 04:22:44;;;;;;;35.00;32.30;;;;;;;;;;2048308;28;20621;-74
2021/06/26 04:23:45;;;;;;;34.80;31.90;;;;;;;;;;2048282;28;20442;-75
2021/06/26 04:24:46;;;;;;;35.07;32.07;;;;;;;;;;2039695;28;20447;-74
2021/06/26 04:25:47;;;;;;;37.33;34.43;;;;;;;;;;2039825;29;20223;-74
2021/06/26 04:26:50;;;;;;;36.83;33.87;;;;;;;;;;2039304;29;20451;-74
2021/06/26 04:27:51;;;;;;;36.00;33.23;;;;;;;;;;2039709;29;20714;-74
2021/06/26 04:28:52;;;;;;;36.63;33.33;;;;;;;;;;2048302;28;20816;-74
2021/06/26 04:29:53;;;;;;;37.03;33.33;;;;;;;;;;2047876;28;20241;-74
2021/06/26 04:30:54;;;;;;;32.60;29.97;;;;;;;;;;2039285;29;20550;-75
2021/06/26 04:31:54;;;;;;;32.97;30.33;;;;;;;;;;2039827;29;20234;-74
2021/06/26 04:32:56;;;;;;;31.70;29.40;;;;;;;18.46;nan;99111.69;2039286;29;20529;-74
2021/06/26 04:33:57;;;;;;;33.70;30.93;;;;;;;;;;2031727;29;20770;-75
2021/06/26 04:34:58;;;;;;;32.50;29.80;;;;;;;;;;2031667;29;20876;-74
2021/06/26 04:35:59;;;;;;;32.37;29.87;;;;;;;;;;2039621;29;20234;-74
2021/06/26 04:37:01;;;;;;;32.00;29.70;;;;;;;;;;2048197;28;20517;-74
2021/06/26 04:38:01;;;;;;;31.73;29.33;;;;;;;;;;2048252;28;20241;-74
2021/06/26 04:39:07;;;;;;;30.77;28.10;;;;;;;22.40;100.00;57713.63;2039761;29;20545;-74
2021/06/26 04:40:08;;;;;;;30.67;27.70;;;;;;;;;;2039798;28;20239;-74
2021/06/26 04:41:09;;;;;;;31.67;29.17;;;;;;;;;;2048115;28;20454;-74
2021/06/26 04:42:11;;;;;;;31.07;28.57;;;;;;;;;;2039459;29;20795;-74
2021/06/26 04:43:13;;;;;;;30.03;27.83;;;;;;;;;;2031727;29;20468;-74
2021/06/26 04:44:13;;;;;;;30.33;27.93;;;;;;;;;;2039723;29;20455;-74
2021/06/26 04:45:15;;;;;;;30.27;27.87;;;;;;;;;;2039197;29;20451;-74
2021/06/26 04:46:16;;;;;;;30.93;28.50;;;;;;;;;;2039812;29;20749;-74
2021/06/26 04:47:17;;;;;;;31.00;28.53;;;;;;;;;;2039136;29;20889;-74
2021/06/26 04:48:20;;;;;;;30.37;27.97;;;;;;;;;;2039527;29;20222;-74
2021/06/26 04:49:21;;;;;;;30.13;27.63;;;;;;;;;;2039468;29;20587;-74
2021/06/26 04:50:22;;;;;;;30.57;28.10;;;;;;;;;;2039164;28;20817;-74
2021/06/26 04:51:23;;;;;;;30.43;28.03;;;;;;;;;;2039533;29;20549;-74
2021/06/26 04:52:24;;;;;;;30.90;28.30;;;;;;;;;;2039632;29;20231;-74
2021/06/26 04:53:25;;;;;;;31.57;29.00;;;;;;;;;;2048153;28;20951;-74
2021/06/26 04:54:26;;;;;;;30.63;28.23;;;;;;;;;;2039508;29;20732;-74
2021/06/26 04:55:27;;;;;;;31.00;28.70;;;;;;;;;;2031712;29;20798;-74
2021/06/26 04:56:28;;;;;;;29.30;27.10;;;;;;;;;;2039175;29;20234;-74
2021/06/26 04:57:30;;;;;;;30.57;27.60;;;;;;;;;;2047565;28;20474;-74
2021/06/26 04:58:31;;;;;;;30.67;28.03;;;;;;;;;;2039491;29;20223;-74
2021/06/26 04:59:33;;;;;;;30.17;27.77;;;;;;;;;;2039526;29;21008;-74
2021/06/26 05:00:33;;;;;;;29.47;27.03;;;;;;;;;;2047018;28;20225;-74
2021/06/26 05:01:35;;;;;;;29.10;26.83;;;;;;;;;;2039489;29;20562;-74
2021/06/26 05:02:35;;;;;;;28.90;26.70;;;;;;;;;;2039635;29;20250;-74
2021/06/26 05:03:39;;;;;;;29.43;27.00;;;;;;;;;;2047981;28;20480;-73
2021/06/26 05:04:39;;;;;;;29.47;27.13;;;;;;;;;;2047735;28;20634;-74
2021/06/26 05:05:41;;;;;;;30.27;27.67;;;;;;;;;;2047812;28;20481;-74
2021/06/26 05:06:41;;;;;;;28.63;26.33;;;;;;;;;;2039549;29;20764;-74
2021/06/26 05:07:43;;;;;;;27.93;25.83;;;;;;;;;;2039425;29;20896;-74
2021/06/26 05:08:43;;;;;;;29.77;27.37;;;;;;;;;;2048007;28;20222;-74
2021/06/26 05:09:45;;;;;;;29.10;26.80;;;;;;;;;;2048070;28;20509;-74
2021/06/26 05:10:46;;;;;;;30.23;27.73;;;;;;;;;;2047617;28;20229;-74
2021/06/26 05:11:47;;;;;;;28.60;26.50;;;;;;;;;;2039041;29;20482;-73
2021/06/26 05:12:49;;;;;;;29.67;27.37;;;;;;;;;;2031481;29;20244;-74
2021/06/26 05:13:50;;;;;;;29.00;26.70;;;;;;;;;;2039583;28;20529;-74
2021/06/26 05:14:51;;;;;;;28.87;26.60;;;;;;;;;;2039329;29;20466;-74
2021/06/26 05:15:52;;;;;;;29.40;27.00;;;;;;;;;;2039257;29;20506;-75
2021/06/26 05:16:53;;;;;;;28.90;26.60;;;;;;;;;;2047969;28;20637;-74
2021/06/26 05:17:54;;;;;;;28.90;26.30;;;;;;;;;;2039328;29;20474;-74
2021/06/26 05:18:55;;;;;;;29.67;27.00;;;;;;;;;;2039588;29;20255;-74
2021/06/26 05:19:56;;;;;;;28.63;25.97;;;;;;;;;;2039445;29;20471;-74
2021/06/26 05:20:57;;;;;;;30.03;27.40;;;;;;;;;;2031486;29;20239;-74
2021/06/26 05:21:58;;;;;;;29.73;27.30;;;;;;;;;;2039587;29;20474;-74
2021/06/26 05:22:59;;;;;;;31.00;28.57;;;;;;;;;;2048015;28;20751;-74
2021/06/26 05:24:00;;;;;;;30.93;28.43;;;;;;;;;;2047951;28;20824;-74
2021/06/26 05:25:01;;;;;;;29.17;26.80;;;;;;;;;;2039352;29;20678;-74
2021/06/26 05:26:03;;;;;;;28.23;25.90;;;;;;;;;;2031524;29;20896;-74
2021/06/26 05:27:04;;;;;;;28.57;26.27;;;;;;;;;;2039563;29;20768;-74
2021/06/26 05:28:07;;;;;;;28.13;26.03;;;;;;;22.40;100.00;57741.97;2047756;28;21016;-74
2021/06/26 05:29:07;;;;;;;28.27;26.17;;;;;;;;;;2048192;28;20461;-74
2021/06/26 05:30:10;;;;;;;28.00;25.90;;;;;;;;;;2049600;28;20476;-74
2021/06/26 05:31:10;;;;;;;28.97;26.77;;;;;;;;;;2040881;29;20724;-74
2021/06/26 05:32:12;;;;;;;27.93;25.77;;;;;;;;;;2040832;29;21118;-74
2021/06/26 05:33:13;;;;;;;30.00;27.60;;;;;;;;;;2049514;28;20684;-74
2021/06/26 05:34:14;;;;;;;30.50;27.97;;;;;;;;;;2040890;29;20877;-74
2021/06/26 05:35:15;;;;;;;29.50;27.00;;;;;;;;;;2041072;29;20302;-74
2021/06/26 05:36:16;;;;;;;29.40;26.90;;;;;;;;;;2049578;28;20486;-74
2021/06/26 05:37:17;;;;;;;29.97;27.33;;;;;;;;;;2049659;28;20229;-74
2021/06/26 05:38:18;;;;;;;29.97;27.20;;;;;;;;;;2049683;28;20541;-74
2021/06/26 05:39:19;;;;;;;29.10;26.70;;;;;;;;;;2041144;29;20275;-74
2021/06/26 05:40:21;;;;;;;29.33;26.63;;;;;;;;;;2040783;29;20984;-74
2021/06/26 05:41:21;;;;;;;28.17;26.03;;;;;;;;;;2049096;28;20281;-74
2021/06/26 05:42:23;;;;;;;28.03;25.80;;;;;;;;;;2040538;29;20519;-75
2021/06/26 05:43:24;;;;;;;29.00;26.70;;;;;;;;;;2032934;29;20646;-74
2021/06/26 05:44:26;;;;;;;28.03;25.63;;;;;;;;;;2040924;29;20489;-74
2021/06/26 05:45:27;;;;;;;29.17;26.63;;;;;;;;;;2049518;28;20779;-74
2021/06/26 05:46:28;;;;;;;28.10;25.67;;;;;;;;;;2049363;28;20472;-75
2021/06/26 05:47:28;;;;;;;27.93;25.80;;;;;;;;;;2049511;28;20225;-74
2021/06/26 05:48:30;;;;;;;29.63;26.93;;;;;;;22.40;100.00;57713.63;2040975;29;20554;-74
2021/06/26 05:49:31;;;;;;;29.57;27.17;;;;;;;;;;2040929;29;20229;-74
2021/06/26 05:50:32;;;;;;;28.90;26.30;;;;;;;;;;2049465;28;20458;-74
2021/06/26 05:51:33;;;;;;;29.47;27.07;;;;;;;;;;2040826;29;20317;-74
2021/06/26 05:52:44;;;;;;;28.20;25.87;;;;;;;;;;2033006;29;20487;-74
2021/06/26 05:53:44;;;;;;;29.43;27.13;;;;;;;;;;2041777;28;20226;-74